sensor_id;sensor_type;location;lat;lon;timestamp;pressure;altitude;pressure_sealevel;temperature;humidity
9249;BME280;4660;41.768;26.198;2023-03-15T00:00:43;100218.28;;;5.10;100.00
9249;BME280;4660;41.768;26.198;2023-03-15T00:03:09;100226.28;;;5.10;100.00
9249;BME280;4660;41.768;26.198;2023-03-15T00:05:35;100199.44;;;4.89;100.00
9249;BME280;4660;41.768;26.198;2023-03-15T00:08:01;100217.13;;;4.90;100.00
9249;BME280;4660;41.768;26.198;2023-03-15T00:10:27;100215.41;;;4.78;100.00
9249;BME280;4660;41.768;26.198;2023-03-15T00:12:53;100168.88;;;4.35;100.00
9249;BME280;4660;41.768;26.198;2023-03-15T00:15:19;100210.84;;;4.91;100.00
9249;BME280;4660;41.768;26.198;2023-03-15T00:17:44;100206.94;;;4.84;100.00
9249;BME280;4660;41.768;26.198;2023-03-15T00:20:11;100172.22;;;4.50;100.00
9249;BME280;4660;41.768;26.198;2023-03-15T00:22:39;100199.59;;;4.52;100.00
9249;BME280;4660;41.768;26.198;2023-03-15T00:25:05;100189.44;;;4.57;100.00
9249;BME280;4660;41.768;26.198;2023-03-15T00:27:30;100187.31;;;4.38;100.00
9249;BME280;4660;41.768;26.198;2023-03-15T00:29:56;100186.66;;;4.35;100.00
9249;BME280;4660;41.768;26.198;2023-03-15T00:32:21;100171.84;;;4.20;100.00
9249;BME280;4660;41.768;26.198;2023-03-15T00:34:47;100173.47;;;4.33;100.00
9249;BME280;4660;41.768;26.198;2023-03-15T00:37:15;100185.94;;;4.33;100.00
9249;BME280;4660;41.768;26.198;2023-03-15T00:39:41;100179.16;;;4.29;100.00
9249;BME280;4660;41.768;26.198;2023-03-15T00:42:10;100178.69;;;4.35;100.00
9249;BME280;4660;41.768;26.198;2023-03-15T00:44:36;100172.69;;;4.55;100.00
9249;BME280;4660;41.768;26.198;2023-03-15T00:47:01;100172.63;;;4.68;100.00
9249;BME280;4660;41.768;26.198;2023-03-15T00:49:27;100155.06;;;4.65;100.00
9249;BME280;4660;41.768;26.198;2023-03-15T00:51:55;100141.13;;;4.51;100.00
9249;BME280;4660;41.768;26.198;2023-03-15T00:54:21;100147.09;;;4.65;100.00
9249;BME280;4660;41.768;26.198;2023-03-15T00:56:48;100143.59;;;4.41;100.00
9249;BME280;4660;41.768;26.198;2023-03-15T00:59:14;100136.31;;;4.32;100.00
9249;BME280;4660;41.768;26.198;2023-03-15T01:01:40;100114.75;;;4.24;100.00
9249;BME280;4660;41.768;26.198;2023-03-15T01:04:12;100134.88;;;4.39;100.00
9249;BME280;4660;41.768;26.198;2023-03-15T01:06:38;100143.56;;;4.65;100.00
9249;BME280;4660;41.768;26.198;2023-03-15T01:09:07;100136.78;;;4.61;100.00
9249;BME280;4660;41.768;26.198;2023-03-15T01:11:33;100133.75;;;4.65;100.00
9249;BME280;4660;41.768;26.198;2023-03-15T01:13:59;100120.44;;;4.65;100.00
9249;BME280;4660;41.768;26.198;2023-03-15T01:16:26;100122.94;;;4.45;100.00
9249;BME280;4660;41.768;26.198;2023-03-15T01:18:52;100120.81;;;4.26;100.00
9249;BME280;4660;41.768;26.198;2023-03-15T01:21:19;100119.22;;;4.23;100.00
9249;BME280;4660;41.768;26.198;2023-03-15T01:23:45;100112.69;;;4.27;100.00
9249;BME280;4660;41.768;26.198;2023-03-15T01:26:13;100115.00;;;3.97;100.00
9249;BME280;4660;41.768;26.198;2023-03-15T01:28:39;100109.03;;;4.17;100.00
9249;BME280;4660;41.768;26.198;2023-03-15T01:31:05;100116.50;;;4.36;100.00
9249;BME280;4660;41.768;26.198;2023-03-15T01:33:31;100117.22;;;4.38;100.00
9249;BME280;4660;41.768;26.198;2023-03-15T01:36:02;100096.25;;;4.33;100.00
9249;BME280;4660;41.768;26.198;2023-03-15T01:38:27;100099.00;;;4.21;100.00
9249;BME280;4660;41.768;26.198;2023-03-15T01:40:53;100081.75;;;4.02;100.00
9249;BME280;4660;41.768;26.198;2023-03-15T01:43:21;100089.09;;;4.23;100.00
9249;BME280;4660;41.768;26.198;2023-03-15T01:45:56;100085.88;;;4.06;100.00
9249;BME280;4660;41.768;26.198;2023-03-15T01:48:34;100091.59;;;4.13;100.00
9249;BME280;4660;41.768;26.198;2023-03-15T01:51:05;100088.78;;;4.03;100.00
9249;BME280;4660;41.768;26.198;2023-03-15T01:53:32;100088.66;;;4.05;100.00
9249;BME280;4660;41.768;26.198;2023-03-15T01:55:59;100067.50;;;4.03;100.00
9249;BME280;4660;41.768;26.198;2023-03-15T01:58:26;100087.09;;;4.02;100.00
9249;BME280;4660;41.768;26.198;2023-03-15T02:00:52;100077.63;;;3.98;100.00
9249;BME280;4660;41.768;26.198;2023-03-15T02:03:24;100080.69;;;4.05;100.00
9249;BME280;4660;41.768;26.198;2023-03-15T02:05:56;100073.72;;;3.91;100.00
9249;BME280;4660;41.768;26.198;2023-03-15T02:08:26;100062.09;;;3.92;100.00
9249;BME280;4660;41.768;26.198;2023-03-15T02:10:55;100065.47;;;3.83;100.00
9249;BME280;4660;41.768;26.198;2023-03-15T02:13:23;100074.13;;;3.98;100.00
9249;BME280;4660;41.768;26.198;2023-03-15T02:15:53;100059.13;;;3.97;100.00
9249;BME280;4660;41.768;26.198;2023-03-15T02:18:20;100065.41;;;4.31;100.00
9249;BME280;4660;41.768;26.198;2023-03-15T02:23:34;100068.72;;;4.10;100.00
9249;BME280;4660;41.768;26.198;2023-03-15T02:28:41;100063.94;;;3.92;100.00
9249;BME280;4660;41.768;26.198;2023-03-15T02:31:07;100053.53;;;3.89;100.00
9249;BME280;4660;41.768;26.198;2023-03-15T02:33:53;100059.41;;;3.81;100.00
9249;BME280;4660;41.768;26.198;2023-03-15T02:36:24;100053.53;;;4.00;100.00
9249;BME280;4660;41.768;26.198;2023-03-15T02:38:51;100048.16;;;3.77;100.00
9249;BME280;4660;41.768;26.198;2023-03-15T02:41:21;100076.25;;;3.93;100.00
9249;BME280;4660;41.768;26.198;2023-03-15T02:43:54;100058.34;;;3.83;100.00
9249;BME280;4660;41.768;26.198;2023-03-15T02:46:21;100066.78;;;4.12;100.00
9249;BME280;4660;41.768;26.198;2023-03-15T02:48:47;100078.19;;;4.26;100.00
9249;BME280;4660;41.768;26.198;2023-03-15T02:51:22;100065.00;;;4.24;100.00
9249;BME280;4660;41.768;26.198;2023-03-15T02:53:49;100065.41;;;4.42;100.00
9249;BME280;4660;41.768;26.198;2023-03-15T02:56:15;100089.75;;;4.37;100.00
9249;BME280;4660;41.768;26.198;2023-03-15T02:58:41;100089.56;;;4.17;100.00
9249;BME280;4660;41.768;26.198;2023-03-15T03:01:13;100088.25;;;4.22;100.00
9249;BME280;4660;41.768;26.198;2023-03-15T03:03:43;100087.09;;;4.13;100.00
9249;BME280;4660;41.768;26.198;2023-03-15T03:06:11;100090.53;;;4.16;100.00
9249;BME280;4660;41.768;26.198;2023-03-15T03:08:37;100088.31;;;4.09;100.00
9249;BME280;4660;41.768;26.198;2023-03-15T03:11:03;100090.72;;;4.01;100.00
9249;BME280;4660;41.768;26.198;2023-03-15T03:13:29;100088.94;;;4.13;100.00
9249;BME280;4660;41.768;26.198;2023-03-15T03:15:55;100075.59;;;4.02;100.00
9249;BME280;4660;41.768;26.198;2023-03-15T03:18:24;100080.09;;;4.12;100.00
9249;BME280;4660;41.768;26.198;2023-03-15T03:20:49;100079.63;;;4.07;100.00
9249;BME280;4660;41.768;26.198;2023-03-15T03:23:15;100081.44;;;4.18;100.00
9249;BME280;4660;41.768;26.198;2023-03-15T03:25:40;100077.75;;;4.32;100.00
9249;BME280;4660;41.768;26.198;2023-03-15T03:28:06;100077.59;;;4.22;100.00
9249;BME280;4660;41.768;26.198;2023-03-15T03:30:34;100068.88;;;4.20;100.00
9249;BME280;4660;41.768;26.198;2023-03-15T03:32:59;100071.66;;;4.19;100.00
9249;BME280;4660;41.768;26.198;2023-03-15T03:35:25;100062.56;;;4.10;100.00
9249;BME280;4660;41.768;26.198;2023-03-15T03:37:50;100077.88;;;4.06;100.00
9249;BME280;4660;41.768;26.198;2023-03-15T03:40:17;100060.22;;;3.94;100.00
9249;BME280;4660;41.768;26.198;2023-03-15T03:42:43;100076.44;;;4.02;100.00
9249;BME280;4660;41.768;26.198;2023-03-15T03:45:09;100067.34;;;3.94;100.00
9249;BME280;4660;41.768;26.198;2023-03-15T03:47:35;100068.84;;;3.85;100.00
9249;BME280;4660;41.768;26.198;2023-03-15T03:50:00;100065.91;;;4.01;100.00
9249;BME280;4660;41.768;26.198;2023-03-15T03:52:26;100074.44;;;4.28;100.00
9249;BME280;4660;41.768;26.198;2023-03-15T03:54:52;100058.25;;;4.42;100.00
9249;BME280;4660;41.768;26.198;2023-03-15T03:57:17;100076.31;;;4.39;100.00
9249;BME280;4660;41.768;26.198;2023-03-15T03:59:42;100071.19;;;4.25;100.00
9249;BME280;4660;41.768;26.198;2023-03-15T04:02:08;100069.31;;;4.14;100.00
9249;BME280;4660;41.768;26.198;2023-03-15T04:04:33;100065.41;;;3.96;100.00
9249;BME280;4660;41.768;26.198;2023-03-15T04:06:59;100064.44;;;3.97;100.00
9249;BME280;4660;41.768;26.198;2023-03-15T04:09:25;100056.88;;;3.79;100.00
9249;BME280;4660;41.768;26.198;2023-03-15T04:11:50;100059.84;;;3.99;100.00
9249;BME280;4660;41.768;26.198;2023-03-15T04:14:16;100046.66;;;3.97;100.00
9249;BME280;4660;41.768;26.198;2023-03-15T04:16:41;100054.88;;;3.70;100.00
9249;BME280;4660;41.768;26.198;2023-03-15T04:19:08;100047.72;;;3.59;100.00
9249;BME280;4660;41.768;26.198;2023-03-15T04:21:34;100049.34;;;3.49;100.00
9249;BME280;4660;41.768;26.198;2023-03-15T04:24:00;100030.28;;;3.55;100.00
9249;BME280;4660;41.768;26.198;2023-03-15T04:26:29;100020.44;;;3.69;100.00
9249;BME280;4660;41.768;26.198;2023-03-15T04:28:56;100024.81;;;3.46;100.00
9249;BME280;4660;41.768;26.198;2023-03-15T04:31:23;100025.72;;;3.57;100.00
9249;BME280;4660;41.768;26.198;2023-03-15T04:33:53;100030.28;;;3.79;100.00
9249;BME280;4660;41.768;26.198;2023-03-15T04:36:20;100028.81;;;3.51;100.00
9249;BME280;4660;41.768;26.198;2023-03-15T04:38:45;100007.25;;;3.19;100.00
9249;BME280;4660;41.768;26.198;2023-03-15T04:41:12;100025.22;;;3.16;100.00
9249;BME280;4660;41.768;26.198;2023-03-15T04:43:38;100034.75;;;3.31;100.00
9249;BME280;4660;41.768;26.198;2023-03-15T04:46:04;100032.25;;;3.41;100.00
9249;BME280;4660;41.768;26.198;2023-03-15T04:48:29;100029.38;;;3.44;100.00
9249;BME280;4660;41.768;26.198;2023-03-15T04:50:55;100043.69;;;3.54;100.00
9249;BME280;4660;41.768;26.198;2023-03-15T04:53:21;100038.34;;;3.78;100.00
9249;BME280;4660;41.768;26.198;2023-03-15T04:55:46;100033.66;;;3.81;100.00
9249;BME280;4660;41.768;26.198;2023-03-15T04:58:12;100033.53;;;3.83;100.00
9249;BME280;4660;41.768;26.198;2023-03-15T05:00:37;100023.22;;;3.78;100.00
9249;BME280;4660;41.768;26.198;2023-03-15T05:03:03;100029.63;;;3.65;100.00
9249;BME280;4660;41.768;26.198;2023-03-15T05:05:31;100032.63;;;3.36;100.00
9249;BME280;4660;41.768;26.198;2023-03-15T05:07:57;100028.31;;;3.46;100.00
9249;BME280;4660;41.768;26.198;2023-03-15T05:10:23;100028.22;;;3.35;100.00
9249;BME280;4660;41.768;26.198;2023-03-15T05:12:50;100034.22;;;3.50;100.00
9249;BME280;4660;41.768;26.198;2023-03-15T05:15:16;100032.16;;;3.66;100.00
9249;BME280;4660;41.768;26.198;2023-03-15T05:17:41;100024.75;;;3.58;100.00
9249;BME280;4660;41.768;26.198;2023-03-15T05:20:11;100005.84;;;3.50;100.00
9249;BME280;4660;41.768;26.198;2023-03-15T05:22:38;100022.19;;;3.92;100.00
9249;BME280;4660;41.768;26.198;2023-03-15T05:25:04;100017.38;;;3.97;100.00
9249;BME280;4660;41.768;26.198;2023-03-15T05:27:29;100027.31;;;4.06;100.00
9249;BME280;4660;41.768;26.198;2023-03-15T05:29:58;100019.63;;;4.26;100.00
9249;BME280;4660;41.768;26.198;2023-03-15T05:32:24;100013.94;;;4.19;100.00
9249;BME280;4660;41.768;26.198;2023-03-15T05:34:51;100022.53;;;4.34;100.00
9249;BME280;4660;41.768;26.198;2023-03-15T05:37:22;100019.28;;;4.41;100.00
9249;BME280;4660;41.768;26.198;2023-03-15T05:39:47;100012.78;;;4.46;100.00
9249;BME280;4660;41.768;26.198;2023-03-15T05:42:13;99977.78;;;4.39;100.00
9249;BME280;4660;41.768;26.198;2023-03-15T05:44:39;99970.03;;;4.47;100.00
9249;BME280;4660;41.768;26.198;2023-03-15T05:47:04;99990.50;;;4.47;100.00
9249;BME280;4660;41.768;26.198;2023-03-15T05:49:30;99997.03;;;4.76;100.00
9249;BME280;4660;41.768;26.198;2023-03-15T05:51:55;99981.75;;;4.89;100.00
9249;BME280;4660;41.768;26.198;2023-03-15T05:54:21;100000.28;;;5.02;100.00
9249;BME280;4660;41.768;26.198;2023-03-15T05:56:46;99986.47;;;5.08;100.00
9249;BME280;4660;41.768;26.198;2023-03-15T05:59:12;100020.31;;;5.29;100.00
9249;BME280;4660;41.768;26.198;2023-03-15T06:01:37;100010.19;;;5.22;100.00
9249;BME280;4660;41.768;26.198;2023-03-15T06:04:03;100013.78;;;5.33;100.00
9249;BME280;4660;41.768;26.198;2023-03-15T06:06:29;100003.38;;;5.30;100.00
9249;BME280;4660;41.768;26.198;2023-03-15T06:08:54;100005.69;;;5.23;100.00
9249;BME280;4660;41.768;26.198;2023-03-15T06:11:20;100005.56;;;5.13;100.00
9249;BME280;4660;41.768;26.198;2023-03-15T06:13:46;100008.72;;;5.30;100.00
9249;BME280;4660;41.768;26.198;2023-03-15T06:16:11;100015.06;;;5.49;100.00
9249;BME280;4660;41.768;26.198;2023-03-15T06:18:37;100006.31;;;5.59;100.00
9249;BME280;4660;41.768;26.198;2023-03-15T06:21:03;100006.56;;;5.56;100.00
9249;BME280;4660;41.768;26.198;2023-03-15T06:23:28;100009.03;;;5.79;100.00
9249;BME280;4660;41.768;26.198;2023-03-15T06:25:54;99994.09;;;5.77;100.00
9249;BME280;4660;41.768;26.198;2023-03-15T06:28:19;99987.00;;;5.66;100.00
9249;BME280;4660;41.768;26.198;2023-03-15T06:30:45;100022.47;;;5.78;100.00
9249;BME280;4660;41.768;26.198;2023-03-15T06:33:10;100005.03;;;5.74;100.00
9249;BME280;4660;41.768;26.198;2023-03-15T06:35:36;100018.47;;;5.84;100.00
9249;BME280;4660;41.768;26.198;2023-03-15T06:38:01;100013.25;;;5.82;100.00
9249;BME280;4660;41.768;26.198;2023-03-15T06:40:27;100019.28;;;5.95;100.00
9249;BME280;4660;41.768;26.198;2023-03-15T06:42:52;100022.50;;;6.10;100.00
9249;BME280;4660;41.768;26.198;2023-03-15T06:45:19;100015.84;;;6.25;100.00
9249;BME280;4660;41.768;26.198;2023-03-15T06:47:44;100014.53;;;6.41;100.00
9249;BME280;4660;41.768;26.198;2023-03-15T06:50:10;100025.03;;;6.32;100.00
9249;BME280;4660;41.768;26.198;2023-03-15T06:52:36;100010.50;;;6.25;100.00
9249;BME280;4660;41.768;26.198;2023-03-15T06:55:03;100029.16;;;6.37;100.00
9249;BME280;4660;41.768;26.198;2023-03-15T06:57:29;100022.16;;;6.24;100.00
9249;BME280;4660;41.768;26.198;2023-03-15T06:59:54;100004.63;;;6.31;100.00
9249;BME280;4660;41.768;26.198;2023-03-15T07:02:21;100017.38;;;6.49;100.00
9249;BME280;4660;41.768;26.198;2023-03-15T07:04:47;100002.69;;;6.33;100.00
9249;BME280;4660;41.768;26.198;2023-03-15T07:07:14;99999.94;;;6.45;100.00
9249;BME280;4660;41.768;26.198;2023-03-15T07:09:40;99986.28;;;6.78;100.00
9249;BME280;4660;41.768;26.198;2023-03-15T07:12:06;99980.03;;;6.99;100.00
9249;BME280;4660;41.768;26.198;2023-03-15T07:14:34;99986.13;;;7.10;100.00
9249;BME280;4660;41.768;26.198;2023-03-15T07:17:00;99974.75;;;7.28;100.00
9249;BME280;4660;41.768;26.198;2023-03-15T07:19:26;99974.91;;;7.36;100.00
9249;BME280;4660;41.768;26.198;2023-03-15T07:21:51;99977.00;;;7.32;100.00
9249;BME280;4660;41.768;26.198;2023-03-15T07:24:17;99986.75;;;7.53;100.00
9249;BME280;4660;41.768;26.198;2023-03-15T07:26:43;99979.16;;;7.58;100.00
9249;BME280;4660;41.768;26.198;2023-03-15T07:29:08;99961.38;;;7.47;100.00
9249;BME280;4660;41.768;26.198;2023-03-15T07:31:34;99948.59;;;7.60;100.00
9249;BME280;4660;41.768;26.198;2023-03-15T07:34:00;99944.19;;;7.88;100.00
9249;BME280;4660;41.768;26.198;2023-03-15T07:36:26;99943.88;;;8.11;100.00
9249;BME280;4660;41.768;26.198;2023-03-15T07:38:51;99947.81;;;8.16;100.00
9249;BME280;4660;41.768;26.198;2023-03-15T07:41:17;99938.34;;;8.12;100.00
9249;BME280;4660;41.768;26.198;2023-03-15T07:43:43;99944.88;;;8.10;100.00
9249;BME280;4660;41.768;26.198;2023-03-15T07:46:08;99939.38;;;8.02;100.00
9249;BME280;4660;41.768;26.198;2023-03-15T07:48:34;99962.16;;;8.25;100.00
9249;BME280;4660;41.768;26.198;2023-03-15T07:50:59;99954.81;;;8.27;100.00
9249;BME280;4660;41.768;26.198;2023-03-15T07:53:25;99944.13;;;8.37;100.00
9249;BME280;4660;41.768;26.198;2023-03-15T07:55:51;99964.06;;;8.62;100.00
9249;BME280;4660;41.768;26.198;2023-03-15T07:58:24;99939.38;;;8.86;100.00
9249;BME280;4660;41.768;26.198;2023-03-15T08:00:53;99969.97;;;9.20;100.00
9249;BME280;4660;41.768;26.198;2023-03-15T08:03:19;99970.19;;;9.27;100.00
9249;BME280;4660;41.768;26.198;2023-03-15T08:05:44;99945.19;;;9.08;100.00
9249;BME280;4660;41.768;26.198;2023-03-15T08:08:10;99942.84;;;9.23;100.00
9249;BME280;4660;41.768;26.198;2023-03-15T08:10:35;99926.09;;;9.12;100.00
9249;BME280;4660;41.768;26.198;2023-03-15T08:13:01;99920.03;;;9.09;100.00
9249;BME280;4660;41.768;26.198;2023-03-15T08:15:26;99932.09;;;9.23;100.00
9249;BME280;4660;41.768;26.198;2023-03-15T08:17:52;99913.06;;;9.17;100.00
9249;BME280;4660;41.768;26.198;2023-03-15T08:20:17;99920.44;;;9.68;100.00
9249;BME280;4660;41.768;26.198;2023-03-15T08:22:45;99907.19;;;9.92;100.00
9249;BME280;4660;41.768;26.198;2023-03-15T08:25:12;99903.91;;;10.07;100.00
9249;BME280;4660;41.768;26.198;2023-03-15T08:27:40;99908.09;;;10.01;100.00
9249;BME280;4660;41.768;26.198;2023-03-15T08:30:10;99911.13;;;10.06;100.00
9249;BME280;4660;41.768;26.198;2023-03-15T08:32:38;99910.69;;;10.11;100.00
9249;BME280;4660;41.768;26.198;2023-03-15T08:35:05;99912.84;;;10.33;100.00
9249;BME280;4660;41.768;26.198;2023-03-15T08:37:31;99877.31;;;10.22;100.00
9249;BME280;4660;41.768;26.198;2023-03-15T08:39:56;99893.75;;;10.18;100.00
9249;BME280;4660;41.768;26.198;2023-03-15T08:42:26;99897.06;;;10.30;100.00
9249;BME280;4660;41.768;26.198;2023-03-15T08:44:52;99873.91;;;10.37;100.00
9249;BME280;4660;41.768;26.198;2023-03-15T08:47:17;99872.50;;;10.59;100.00
9249;BME280;4660;41.768;26.198;2023-03-15T08:49:51;99875.19;;;10.67;100.00
9249;BME280;4660;41.768;26.198;2023-03-15T08:52:20;99861.44;;;10.79;100.00
9249;BME280;4660;41.768;26.198;2023-03-15T08:54:47;99882.03;;;11.04;100.00
9249;BME280;4660;41.768;26.198;2023-03-15T08:57:13;99880.38;;;11.19;100.00
9249;BME280;4660;41.768;26.198;2023-03-15T08:59:39;99869.13;;;11.40;98.33
9249;BME280;4660;41.768;26.198;2023-03-15T09:02:05;99863.25;;;11.45;97.76
9249;BME280;4660;41.768;26.198;2023-03-15T09:04:32;99842.88;;;11.26;97.59
9249;BME280;4660;41.768;26.198;2023-03-15T09:06:57;99842.19;;;11.32;98.00
9249;BME280;4660;41.768;26.198;2023-03-15T09:09:26;99850.13;;;11.58;96.98
9249;BME280;4660;41.768;26.198;2023-03-15T09:11:51;99806.53;;;11.30;96.81
9249;BME280;4660;41.768;26.198;2023-03-15T09:14:17;99850.63;;;11.45;97.60
9249;BME280;4660;41.768;26.198;2023-03-15T09:16:43;99838.31;;;11.43;96.08
9249;BME280;4660;41.768;26.198;2023-03-15T09:19:08;99854.50;;;11.59;96.11
9249;BME280;4660;41.768;26.198;2023-03-15T09:21:33;99836.31;;;11.61;95.79
9249;BME280;4660;41.768;26.198;2023-03-15T09:23:59;99832.44;;;11.88;92.77
9249;BME280;4660;41.768;26.198;2023-03-15T09:26:24;99820.91;;;12.10;90.01
9249;BME280;4660;41.768;26.198;2023-03-15T09:28:56;99829.81;;;12.19;89.37
9249;BME280;4660;41.768;26.198;2023-03-15T09:31:25;99815.47;;;12.27;90.27
9249;BME280;4660;41.768;26.198;2023-03-15T09:33:50;99810.72;;;12.37;87.88
9249;BME280;4660;41.768;26.198;2023-03-15T09:36:16;99803.75;;;12.43;87.43
9249;BME280;4660;41.768;26.198;2023-03-15T09:38:42;99793.94;;;12.50;88.10
9249;BME280;4660;41.768;26.198;2023-03-15T09:41:18;99787.16;;;12.62;86.06
9249;BME280;4660;41.768;26.198;2023-03-15T09:44:09;99801.94;;;12.74;82.31
9249;BME280;4660;41.768;26.198;2023-03-15T09:52:10;99799.44;;;13.41;77.69
9249;BME280;4660;41.768;26.198;2023-03-15T09:54:59;99799.50;;;13.71;77.11
9249;BME280;4660;41.768;26.198;2023-03-15T09:57:35;99803.34;;;13.91;75.39
9249;BME280;4660;41.768;26.198;2023-03-15T10:00:04;99792.06;;;13.73;73.40
9249;BME280;4660;41.768;26.198;2023-03-15T10:02:45;99803.53;;;13.90;75.51
9249;BME280;4660;41.768;26.198;2023-03-15T10:05:18;99802.41;;;13.99;73.98
9249;BME280;4660;41.768;26.198;2023-03-15T10:07:46;99788.78;;;13.92;74.79
9249;BME280;4660;41.768;26.198;2023-03-15T10:10:32;99800.94;;;14.11;73.57
9249;BME280;4660;41.768;26.198;2023-03-15T10:13:20;99792.81;;;14.26;73.20
9249;BME280;4660;41.768;26.198;2023-03-15T10:30:21;99776.84;;;14.61;70.38
9249;BME280;4660;41.768;26.198;2023-03-15T10:32:51;99764.72;;;14.78;69.51
9249;BME280;4660;41.768;26.198;2023-03-15T10:35:19;99766.53;;;14.92;69.47
9249;BME280;4660;41.768;26.198;2023-03-15T10:37:45;99762.69;;;15.23;68.45
9249;BME280;4660;41.768;26.198;2023-03-15T10:40:12;99746.81;;;15.20;66.90
9249;BME280;4660;41.768;26.198;2023-03-15T10:42:42;99741.50;;;15.33;67.39
9249;BME280;4660;41.768;26.198;2023-03-15T10:45:22;99732.00;;;15.16;69.13
9249;BME280;4660;41.768;26.198;2023-03-15T10:47:49;99731.72;;;15.10;69.15
9249;BME280;4660;41.768;26.198;2023-03-15T10:50:24;99702.00;;;14.96;70.36
9249;BME280;4660;41.768;26.198;2023-03-15T10:52:55;99726.28;;;15.60;68.92
9249;BME280;4660;41.768;26.198;2023-03-15T10:55:42;99717.94;;;15.89;66.22
9249;BME280;4660;41.768;26.198;2023-03-15T10:58:23;99702.94;;;15.59;67.76
9249;BME280;4660;41.768;26.198;2023-03-15T11:01:04;99704.31;;;15.48;68.86
9249;BME280;4660;41.768;26.198;2023-03-15T11:03:33;99703.97;;;15.58;68.59
9249;BME280;4660;41.768;26.198;2023-03-15T11:05:59;99689.22;;;15.39;68.74
9249;BME280;4660;41.768;26.198;2023-03-15T11:08:36;99690.78;;;15.55;68.55
9249;BME280;4660;41.768;26.198;2023-03-15T11:11:03;99692.63;;;15.76;67.95
9249;BME280;4660;41.768;26.198;2023-03-15T11:13:31;99667.25;;;15.90;67.34
9249;BME280;4660;41.768;26.198;2023-03-15T11:18:56;99682.41;;;16.26;64.58
9249;BME280;4660;41.768;26.198;2023-03-15T11:21:30;99673.63;;;16.17;64.69
9249;BME280;4660;41.768;26.198;2023-03-15T11:24:01;99663.13;;;16.01;64.85
9249;BME280;4660;41.768;26.198;2023-03-15T11:26:33;99640.78;;;15.99;64.77
9249;BME280;4660;41.768;26.198;2023-03-15T11:29:33;99636.44;;;16.11;63.82
9249;BME280;4660;41.768;26.198;2023-03-15T11:32:02;99610.72;;;16.00;62.93
9249;BME280;4660;41.768;26.198;2023-03-15T11:34:41;99640.09;;;16.64;61.19
9249;BME280;4660;41.768;26.198;2023-03-15T11:37:21;99647.41;;;16.57;59.22
9249;BME280;4660;41.768;26.198;2023-03-15T11:40:10;99646.19;;;16.66;58.86
9249;BME280;4660;41.768;26.198;2023-03-15T11:45:37;99629.09;;;16.79;59.06
9249;BME280;4660;41.768;26.198;2023-03-15T11:50:53;99575.63;;;16.80;55.55
9249;BME280;4660;41.768;26.198;2023-03-15T11:53:31;99516.25;;;16.63;54.60
9249;BME280;4660;41.768;26.198;2023-03-15T11:56:22;99516.69;;;16.73;52.88
9249;BME280;4660;41.768;26.198;2023-03-15T12:01:29;99565.47;;;17.40;51.88
9249;BME280;4660;41.768;26.198;2023-03-15T12:04:27;99597.06;;;17.99;51.65
9249;BME280;4660;41.768;26.198;2023-03-15T12:07:01;99600.97;;;18.16;50.78
9249;BME280;4660;41.768;26.198;2023-03-15T12:09:46;99565.28;;;18.31;49.64
9249;BME280;4660;41.768;26.198;2023-03-15T12:18:19;99588.06;;;17.98;49.77
9249;BME280;4660;41.768;26.198;2023-03-15T12:21:07;99555.09;;;17.68;49.43
9249;BME280;4660;41.768;26.198;2023-03-15T12:24:06;99488.91;;;17.43;49.40
9249;BME280;4660;41.768;26.198;2023-03-15T12:26:44;99528.75;;;18.07;48.29
9249;BME280;4660;41.768;26.198;2023-03-15T12:29:27;99565.81;;;18.71;47.05
9249;BME280;4660;41.768;26.198;2023-03-15T12:37:30;99413.75;;;17.55;42.98
9249;BME280;4660;41.768;26.198;2023-03-15T12:50:48;99557.75;;;18.26;41.89
9249;BME280;4660;41.768;26.198;2023-03-15T12:53:41;99561.97;;;18.22;39.06
9249;BME280;4660;41.768;26.198;2023-03-15T12:56:32;99556.16;;;18.12;39.46
9249;BME280;4660;41.768;26.198;2023-03-15T13:02:45;99562.78;;;17.91;37.69
9249;BME280;4660;41.768;26.198;2023-03-15T13:05:33;99577.41;;;17.97;35.60
9249;BME280;4660;41.768;26.198;2023-03-15T13:08:08;99576.09;;;18.06;35.25
9249;BME280;4660;41.768;26.198;2023-03-15T13:16:57;99590.84;;;17.85;37.72
9249;BME280;4660;41.768;26.198;2023-03-15T13:19:45;99539.59;;;17.17;38.87
9249;BME280;4660;41.768;26.198;2023-03-15T13:22:32;99595.56;;;17.45;38.08
9249;BME280;4660;41.768;26.198;2023-03-15T13:35:30;99592.09;;;16.98;33.99
9249;BME280;4660;41.768;26.198;2023-03-15T13:38:08;99574.75;;;16.99;35.24
9249;BME280;4660;41.768;26.198;2023-03-15T13:40:34;99576.22;;;16.82;36.95
9249;BME280;4660;41.768;26.198;2023-03-15T13:43:00;99590.84;;;16.94;37.74
9249;BME280;4660;41.768;26.198;2023-03-15T13:45:26;99601.09;;;16.98;38.06
9249;BME280;4660;41.768;26.198;2023-03-15T13:47:52;99595.63;;;17.05;38.51
9249;BME280;4660;41.768;26.198;2023-03-15T13:50:19;99611.50;;;17.21;38.62
9249;BME280;4660;41.768;26.198;2023-03-15T13:52:45;99610.66;;;17.14;35.71
9249;BME280;4660;41.768;26.198;2023-03-15T13:55:20;99615.09;;;17.15;35.34
9249;BME280;4660;41.768;26.198;2023-03-15T13:57:53;99613.81;;;17.18;35.47
9249;BME280;4660;41.768;26.198;2023-03-15T14:00:21;99615.09;;;17.22;36.18
9249;BME280;4660;41.768;26.198;2023-03-15T14:02:57;99597.91;;;17.21;35.92
9249;BME280;4660;41.768;26.198;2023-03-15T14:05:27;99606.06;;;17.21;36.36
9249;BME280;4660;41.768;26.198;2023-03-15T14:08:02;99588.97;;;17.08;36.63
9249;BME280;4660;41.768;26.198;2023-03-15T14:10:31;99586.22;;;17.14;37.83
9249;BME280;4660;41.768;26.198;2023-03-15T14:13:45;99562.22;;;16.98;38.86
9249;BME280;4660;41.768;26.198;2023-03-15T14:16:13;99575.56;;;17.13;39.26
9249;BME280;4660;41.768;26.198;2023-03-15T14:18:48;99465.09;;;16.47;40.09
9249;BME280;4660;41.768;26.198;2023-03-15T14:21:27;99545.84;;;17.24;41.70
9249;BME280;4660;41.768;26.198;2023-03-15T14:24:05;99556.28;;;17.27;43.60
9249;BME280;4660;41.768;26.198;2023-03-15T14:26:31;99567.59;;;17.24;45.09
9249;BME280;4660;41.768;26.198;2023-03-15T14:29:06;99537.53;;;16.93;46.36
9249;BME280;4660;41.768;26.198;2023-03-15T14:31:44;99551.16;;;16.86;48.05
9249;BME280;4660;41.768;26.198;2023-03-15T14:34:44;99570.19;;;16.86;49.81